Time;durP1;ratioP1;P1;durP2;ratioP2;P2;SDS_P1;SDS_P2;PMS_P1;PMS_P2;Temp;Humidity;BMP_temperature;BMP_pressure;BME280_temperature;BME280_humidity;BME280_pressure;Samples;Min_cycle;Max_cycle;Signal;HPM_P1;HPM_P2
2022/01/18 00:01:09;;;;;;;42.90;7.57;;;7.40;99.90;;;;;;5126825;28;20118;-66
2022/01/18 00:03:34;;;;;;;38.80;5.22;;;7.40;99.90;;;;;;5126985;28;20059;-66
2022/01/18 00:06:00;;;;;;;40.38;5.22;;;7.40;99.90;;;;;;5126603;28;20043;-66
2022/01/18 00:08:26;;;;;;;46.47;6.55;;;7.50;99.90;;;;;;5126411;28;20462;-66
2022/01/18 00:10:52;;;;;;;39.13;5.15;;;7.40;99.90;;;;;;5125040;28;20488;-66
2022/01/18 00:18:33;;;;;;;50.13;6.38;;;7.60;99.90;;;;;;5109998;28;20051;-66
2022/01/18 00:23:25;;;;;;;50.65;7.13;;;7.50;99.90;;;;;;5126491;28;20119;-66
2022/01/18 00:25:55;;;;;;;51.05;8.25;;;7.60;99.90;;;;;;5124854;28;20058;-66
2022/01/18 00:28:24;;;;;;;51.88;7.90;;;7.60;99.90;;;;;;5125899;27;20121;-66
2022/01/18 00:36:05;;;;;;;51.10;6.93;;;7.60;99.90;;;;;;5125979;28;20075;-66
2022/01/18 00:38:44;;;;;;;48.00;7.60;;;7.60;99.90;;;;;;5124119;28;20104;-66
2022/01/18 00:41:10;;;;;;;39.80;6.13;;;7.70;99.90;;;;;;5125588;28;20050;-66
2022/01/18 00:43:36;;;;;;;48.22;6.85;;;7.70;99.90;;;;;;5124542;28;20060;-66
2022/01/18 00:46:03;;;;;;;44.67;5.82;;;7.60;99.90;;;;;;5124199;28;20500;-66
2022/01/18 00:48:33;;;;;;;39.42;5.80;;;7.50;99.90;;;;;;5126191;28;20048;-66
2022/01/18 00:50:59;;;;;;;44.60;9.13;;;7.60;99.90;;;;;;5125704;28;20043;-66
2022/01/18 00:53:26;;;;;;;51.15;5.80;;;7.50;99.90;;;;;;5125548;28;20043;-66
2022/01/18 00:56:40;;;;;;;50.20;7.97;;;7.50;99.90;;;;;;5124430;28;20121;-66
2022/01/18 00:58:40;;;;;;;45.03;7.07;;;7.40;99.90;;;;;;5117666;28;20071;-66
2022/01/18 01:01:07;;;;;;;43.95;5.88;;;7.50;99.90;;;;;;5125578;28;20047;-66
2022/01/18 01:03:33;;;;;;;45.67;7.53;;;7.50;99.90;;;;;;5124757;28;20062;-66
2022/01/18 01:06:00;;;;;;;41.75;5.47;;;7.40;99.90;;;;;;5124086;28;20042;-66
2022/01/18 01:08:25;;;;;;;42.85;6.55;;;7.40;99.90;;;;;;5124051;28;20056;-66
2022/01/18 01:10:52;;;;;;;53.15;7.53;;;7.50;99.90;;;;;;5125218;28;20044;-66
2022/01/18 01:13:17;;;;;;;45.13;7.03;;;7.40;99.90;;;;;;5124039;28;20082;-66
2022/01/18 01:34:41;;;;;;;52.50;6.82;;;7.20;99.90;;;;;;5142814;27;20067;-65
2022/01/18 01:45:20;;;;;;;47.33;6.88;;;7.10;99.90;;;;;;5124189;28;20140;-66
2022/01/18 01:47:50;;;;;;;51.05;7.75;;;7.20;99.90;;;;;;5124486;28;20044;-66
2022/01/18 01:50:19;;;;;;;;;;;7.00;99.90;;;;;;5157679;27;20040;-66
2022/01/18 01:52:46;;;;;;;46.42;6.38;;;7.10;99.90;;;;;;5122487;28;19920;-66
2022/01/18 01:55:11;;;;;;;42.38;6.32;;;7.10;99.90;;;;;;5126785;28;20079;-66
2022/01/18 01:57:37;;;;;;;45.30;6.35;;;7.20;99.90;;;;;;5124178;28;20059;-66
2022/01/18 02:00:11;;;;;;;40.00;5.90;;;7.10;99.90;;;;;;5118241;28;20190;-66
2022/01/18 02:02:37;;;;;;;39.15;5.97;;;7.10;99.90;;;;;;5114798;28;20060;-66
2022/01/18 02:05:04;;;;;;;39.35;7.45;;;7.20;99.90;;;;;;5120858;28;20066;-66
2022/01/18 02:07:30;;;;;;;35.25;6.13;;;7.10;99.90;;;;;;5119996;28;20073;-66
2022/01/18 02:09:55;;;;;;;47.55;7.53;;;7.20;99.90;;;;;;5123743;28;20444;-66
2022/01/18 02:12:22;;;;;;;39.92;6.30;;;7.10;99.90;;;;;;5156833;27;20067;-66
2022/01/18 02:14:54;;;;;;;48.83;6.25;;;7.10;99.90;;;;;;5118968;28;20051;-66
2022/01/18 02:22:50;;;;;;;45.60;7.63;;;7.10;99.90;;;;;;5120928;28;20059;-66
2022/01/18 02:25:16;;;;;;;40.72;7.80;;;7.10;99.90;;;;;;5127999;28;20039;-65
2022/01/18 02:27:42;;;;;;;41.15;7.60;;;7.10;99.90;;;;;;5128470;28;20060;-66
2022/01/18 02:30:08;;;;;;;37.95;7.25;;;7.00;99.90;;;;;;5123626;28;20031;-66
2022/01/18 02:32:34;;;;;;;47.92;6.68;;;7.00;99.90;;;;;;5120509;28;20408;-66
2022/01/18 02:35:00;;;;;;;37.15;6.35;;;7.20;99.90;;;;;;5120766;28;20127;-66
2022/01/18 02:37:25;;;;;;;44.22;6.82;;;7.20;99.90;;;;;;5128592;28;20065;-65
2022/01/18 02:39:51;;;;;;;46.33;7.72;;;7.00;99.90;;;;;;5122266;28;20047;-66
2022/01/18 02:42:27;;;;;;;39.47;6.28;;;7.00;99.90;;;;;;5127556;28;20042;-66
2022/01/18 02:44:54;;;;;;;33.03;5.70;;;7.00;99.90;;;;;;5127082;28;20091;-66
2022/01/18 02:47:22;;;;;;;45.20;6.70;;;7.20;99.90;;;;;;5126153;28;20051;-66
2022/01/18 02:49:49;;;;;;;31.23;6.15;;;7.10;99.90;;;;;;5125272;27;20070;-66
2022/01/18 02:52:16;;;;;;;39.17;7.00;;;7.10;99.90;;;;;;5123462;28;21086;-65
2022/01/18 02:54:43;;;;;;;38.53;6.22;;;7.20;99.90;;;;;;5127518;28;20051;-66
2022/01/18 02:57:13;;;;;;;37.63;8.00;;;7.20;99.90;;;;;;5128288;28;20042;-66
2022/01/18 02:59:48;;;;;;;;;;;7.00;99.90;;;;;;5127593;28;20090;-66
2022/01/18 03:05:13;;;;;;;36.40;6.35;;;7.20;99.90;;;;;;5121462;28;20128;-66
2022/01/18 03:07:40;;;;;;;35.25;6.00;;;7.30;99.90;;;;;;5117378;28;20044;-66
2022/01/18 03:10:08;;;;;;;38.38;6.38;;;7.40;99.90;;;;;;5112172;28;20039;-66
2022/01/18 03:12:34;;;;;;;36.78;6.70;;;7.40;99.90;;;;;;5124010;27;20920;-66
2022/01/18 03:15:00;;;;;;;35.00;7.20;;;7.50;99.90;;;;;;5127027;28;20050;-66
2022/01/18 03:17:26;;;;;;;29.00;6.85;;;7.50;99.90;;;;;;5127720;28;20103;-66
2022/01/18 03:19:52;;;;;;;38.90;7.45;;;7.60;99.90;;;;;;5127094;28;20044;-66
2022/01/18 03:22:17;;;;;;;37.85;6.85;;;7.40;99.90;;;;;;5126518;28;20047;-66
2022/01/18 03:25:02;;;;;;;33.13;6.72;;;7.20;99.90;;;;;;5126624;28;20040;-66
2022/01/18 03:30:13;;;;;;;31.33;6.25;;;7.20;99.90;;;;;;5158700;27;20066;-66
2022/01/18 03:32:39;;;;;;;30.83;6.97;;;7.20;99.90;;;;;;5127157;28;20051;-66
2022/01/18 03:35:08;;;;;;;32.88;5.90;;;7.30;99.90;;;;;;5126818;27;20109;-66
2022/01/18 03:37:33;;;;;;;34.05;6.40;;;7.30;99.90;;;;;;5120960;28;20044;-66
2022/01/18 03:39:59;;;;;;;32.58;7.43;;;7.30;99.90;;;;;;5117889;28;20061;-66
2022/01/18 03:42:39;;;;;;;29.63;6.40;;;7.30;99.90;;;;;;5126695;28;20051;-66
2022/01/18 03:45:10;;;;;;;29.58;6.07;;;7.30;99.90;;;;;;5113462;28;20048;-66
2022/01/18 03:47:36;;;;;;;33.42;7.05;;;7.20;99.90;;;;;;5125121;28;20065;-66
2022/01/18 03:50:03;;;;;;;31.27;5.25;;;7.20;99.90;;;;;;5129058;27;20099;-66
2022/01/18 03:52:29;;;;;;;31.77;5.82;;;7.10;99.90;;;;;;5127292;28;20138;-66
2022/01/18 03:54:54;;;;;;;30.15;5.78;;;7.20;99.90;;;;;;5126847;28;20046;-66
2022/01/18 03:57:20;;;;;;;29.35;5.07;;;7.20;99.90;;;;;;5159177;27;20059;-66
2022/01/18 03:59:46;;;;;;;26.83;4.90;;;7.20;99.90;;;;;;5125848;28;20043;-66
2022/01/18 04:02:12;;;;;;;27.63;4.45;;;7.10;99.90;;;;;;5116502;28;20040;-66
2022/01/18 04:04:38;;;;;;;27.75;4.22;;;7.00;99.90;;;;;;5113286;28;20099;-66
2022/01/18 04:07:05;;;;;;;29.60;5.78;;;7.20;99.90;;;;;;5120390;28;20059;-66
2022/01/18 04:09:32;;;;;;;22.92;4.45;;;7.00;99.90;;;;;;5124447;28;20060;-66
2022/01/18 04:11:57;;;;;;;25.30;4.15;;;7.00;99.90;;;;;;5124136;28;20051;-66
2022/01/18 04:14:24;;;;;;;27.88;4.45;;;7.00;99.90;;;;;;5119603;28;20065;-66
2022/01/18 04:28:15;;;;;;;24.70;3.95;;;6.90;99.90;;;;;;5085809;28;20981;-66
2022/01/18 04:30:41;;;;;;;28.48;4.22;;;7.00;99.90;;;;;;5071289;28;20067;-66
2022/01/18 04:33:07;;;;;;;25.10;4.20;;;7.10;99.90;;;;;;5084309;28;20048;-66
2022/01/18 04:35:33;;;;;;;21.10;3.50;;;7.20;99.90;;;;;;5086369;28;20073;-66
2022/01/18 04:37:58;;;;;;;22.33;4.60;;;7.10;99.90;;;;;;5068115;28;20136;-66
2022/01/18 04:40:29;;;;;;;26.40;5.30;;;7.10;99.90;;;;;;5087478;28;20048;-66
2022/01/18 04:50:51;;;;;;;26.85;5.53;;;6.90;99.90;;;;;;5083303;28;20375;-66
2022/01/18 04:53:17;;;;;;;27.20;5.55;;;6.80;99.90;;;;;;5092877;28;20056;-66
2022/01/18 04:55:43;;;;;;;21.83;5.03;;;6.80;99.90;;;;;;5124620;28;20079;-66
2022/01/18 04:58:09;;;;;;;26.02;5.47;;;6.80;99.90;;;;;;5124721;28;20097;-65
2022/01/18 05:00:35;;;;;;;26.10;4.45;;;6.80;99.90;;;;;;5125253;28;20047;-66
2022/01/18 05:03:01;;;;;;;22.17;5.00;;;6.70;99.90;;;;;;5157946;27;20072;-66
2022/01/18 05:05:29;;;;;;;22.50;4.30;;;6.70;99.90;;;;;;5125884;27;20039;-66
2022/01/18 05:08:00;;;;;;;26.40;4.53;;;6.60;99.90;;;;;;5158934;27;20055;-66
2022/01/18 05:10:28;;;;;;;24.42;4.05;;;6.80;99.90;;;;;;5124624;28;20049;-66
2022/01/18 05:12:57;;;;;;;23.17;4.72;;;6.70;99.90;;;;;;5125096;28;20099;-65
2022/01/18 05:23:12;;;;;;;21.27;3.92;;;6.50;99.90;;;;;;5120061;28;20047;-66
2022/01/18 05:25:38;;;;;;;21.52;4.28;;;6.50;99.90;;;;;;5125963;28;20091;-66
2022/01/18 05:28:06;;;;;;;20.55;4.03;;;6.50;99.90;;;;;;5119559;28;20042;-66
2022/01/18 05:30:32;;;;;;;16.58;3.47;;;6.40;99.90;;;;;;5118311;28;20083;-66
2022/01/18 05:32:58;;;;;;;14.00;3.92;;;6.40;99.90;;;;;;5119413;28;20051;-66
2022/01/18 05:35:25;;;;;;;23.67;3.47;;;6.40;99.90;;;;;;5124544;28;20082;-66
2022/01/18 05:37:51;;;;;;;18.77;3.35;;;6.40;99.90;;;;;;5124197;28;20039;-64
2022/01/18 05:40:19;;;;;;;19.75;3.22;;;6.40;99.90;;;;;;5089942;28;20063;-66
2022/01/18 05:42:45;;;;;;;20.08;3.10;;;6.40;99.90;;;;;;5124608;28;20034;-66
2022/01/18 05:45:11;;;;;;;19.17;3.47;;;6.30;99.90;;;;;;5154547;27;20059;-66
2022/01/18 05:47:39;;;;;;;21.90;3.38;;;6.30;99.90;;;;;;5097441;28;20066;-66
2022/01/18 05:50:06;;;;;;;21.58;3.50;;;6.30;99.90;;;;;;5129256;27;20119;-66
2022/01/18 05:52:32;;;;;;;21.25;3.80;;;6.30;99.90;;;;;;5120360;27;20057;-66
2022/01/18 05:54:58;;;;;;;20.75;3.40;;;6.30;99.90;;;;;;5134911;27;20047;-65
2022/01/18 05:57:24;;;;;;;14.13;3.58;;;6.30;99.90;;;;;;5112064;27;20067;-66
2022/01/18 05:59:50;;;;;;;21.02;4.35;;;6.30;99.90;;;;;;5129039;28;20063;-65
2022/01/18 06:02:19;;;;;;;17.13;3.30;;;6.30;99.90;;;;;;5107555;27;20063;-66
2022/01/18 06:07:30;;;;;;;22.52;3.55;;;6.30;99.90;;;;;;5112502;27;20057;-66
2022/01/18 06:09:56;;;;;;;20.60;3.65;;;6.30;99.90;;;;;;5130635;28;20679;-68
2022/01/18 06:12:28;;;;;;;19.33;3.50;;;6.20;99.90;;;;;;5112283;27;20036;-67
2022/01/18 06:14:53;;;;;;;18.90;3.53;;;6.30;99.90;;;;;;5132821;28;20523;-68
2022/01/18 06:17:19;;;;;;;21.55;4.57;;;6.30;99.90;;;;;;5145685;27;20046;-68
2022/01/18 06:19:44;;;;;;;20.20;3.90;;;6.30;99.90;;;;;;5132346;28;20047;-65
2022/01/18 06:22:10;;;;;;;24.40;4.25;;;6.30;99.90;;;;;;5139838;27;20135;-67
2022/01/18 06:24:36;;;;;;;22.63;3.95;;;6.20;99.90;;;;;;5148653;27;20050;-67
2022/01/18 06:27:02;;;;;;;26.55;3.95;;;6.20;99.90;;;;;;5114400;28;20043;-68
2022/01/18 06:29:27;;;;;;;19.65;3.53;;;6.30;99.90;;;;;;5122745;27;20069;-67
2022/01/18 06:31:53;;;;;;;19.25;3.65;;;6.20;99.90;;;;;;5116185;28;20504;-67
2022/01/18 06:34:19;;;;;;;20.58;3.70;;;6.20;99.90;;;;;;5138901;27;20100;-67
2022/01/18 06:36:45;;;;;;;18.77;3.35;;;6.30;99.90;;;;;;5114854;28;20075;-68
2022/01/18 06:39:10;;;;;;;19.80;3.28;;;6.30;99.90;;;;;;5107843;27;20050;-67
2022/01/18 06:41:37;;;;;;;14.38;3.58;;;6.30;99.90;;;;;;5116398;28;20082;-67
2022/01/18 06:44:03;;;;;;;24.77;3.65;;;6.40;99.90;;;;;;5123118;27;20476;-67
2022/01/18 06:46:29;;;;;;;18.48;3.47;;;6.30;99.90;;;;;;5115517;28;20081;-67
2022/01/18 06:48:54;;;;;;;18.88;3.60;;;6.40;99.90;;;;;;5122830;27;20051;-67
2022/01/18 06:51:20;;;;;;;22.58;3.30;;;6.30;99.90;;;;;;5117568;27;20051;-67
2022/01/18 06:53:48;;;;;;;16.80;2.95;;;6.40;99.90;;;;;;5130199;27;20050;-68
2022/01/18 06:56:15;;;;;;;17.55;3.35;;;6.40;99.90;;;;;;5118409;28;20048;-67
2022/01/18 06:58:42;;;;;;;13.63;2.40;;;6.40;99.90;;;;;;5122112;27;20042;-68
2022/01/18 07:01:09;;;;;;;16.48;3.45;;;6.40;99.90;;;;;;5126165;27;20054;-66
2022/01/18 07:03:35;;;;;;;12.90;2.95;;;6.40;99.90;;;;;;5126240;27;20043;-66
2022/01/18 07:06:01;;;;;;;13.48;3.17;;;6.40;99.90;;;;;;5123907;27;20818;-66
2022/01/18 07:08:27;;;;;;;16.30;2.78;;;6.40;99.90;;;;;;5120082;27;20039;-65
2022/01/18 07:10:52;;;;;;;20.15;3.53;;;6.50;99.90;;;;;;5125724;27;20054;-65
2022/01/18 07:13:18;;;;;;;14.82;2.90;;;6.40;99.90;;;;;;5123854;27;20043;-65
2022/01/18 07:15:44;;;;;;;12.35;2.88;;;6.40;99.90;;;;;;5131385;27;20427;-65
2022/01/18 07:18:10;;;;;;;10.07;2.53;;;6.30;99.90;;;;;;5116015;27;20061;-65
2022/01/18 07:20:38;;;;;;;18.60;3.33;;;6.40;99.90;;;;;;5126172;27;20107;-65
2022/01/18 07:23:07;;;;;;;15.95;2.50;;;6.40;99.90;;;;;;5120376;27;20042;-65
2022/01/18 07:25:32;;;;;;;14.27;2.53;;;6.50;99.90;;;;;;5139415;27;20043;-65
2022/01/18 07:27:58;;;;;;;13.50;3.22;;;6.50;99.90;;;;;;5118442;27;20411;-66
2022/01/18 07:30:24;;;;;;;13.65;2.65;;;6.50;99.90;;;;;;5129869;27;20065;-65
2022/01/18 07:32:50;;;;;;;19.52;3.65;;;6.50;99.90;;;;;;5110134;27;20236;-66
2022/01/18 07:35:16;;;;;;;15.93;3.20;;;6.50;99.90;;;;;;5142854;27;20043;-65
2022/01/18 07:37:41;;;;;;;11.57;2.25;;;6.50;99.90;;;;;;5109183;27;20383;-66
2022/01/18 07:40:08;;;;;;;13.35;3.30;;;6.50;99.90;;;;;;5113315;27;20104;-65
2022/01/18 07:42:34;;;;;;;16.77;2.75;;;6.50;99.90;;;;;;5111683;27;20050;-66
2022/01/18 07:45:00;;;;;;;18.40;3.20;;;6.40;99.90;;;;;;5132700;27;20043;-65
2022/01/18 07:47:25;;;;;;;17.35;3.20;;;6.40;99.90;;;;;;5108803;27;20066;-65
2022/01/18 07:49:51;;;;;;;13.60;3.38;;;6.50;99.90;;;;;;5128774;27;20103;-66
2022/01/18 07:52:17;;;;;;;20.52;2.38;;;6.50;99.90;;;;;;5121369;27;20116;-65
2022/01/18 07:54:44;;;;;;;16.70;3.05;;;6.60;99.90;;;;;;5123308;27;20359;-65
2022/01/18 07:57:11;;;;;;;16.48;3.05;;;6.60;99.90;;;;;;5117889;28;20063;-66
2022/01/18 07:59:37;;;;;;;13.07;3.28;;;6.60;99.90;;;;;;5125204;27;20079;-67
2022/01/18 08:02:03;;;;;;;15.93;3.10;;;6.60;99.90;;;;;;5116792;28;20054;-67
2022/01/18 08:04:29;;;;;;;14.05;2.53;;;6.70;99.90;;;;;;5125172;27;20100;-67
2022/01/18 08:06:54;;;;;;;10.77;2.45;;;6.60;99.90;;;;;;5151348;27;20047;-67
2022/01/18 08:09:21;;;;;;;19.20;3.05;;;6.50;99.90;;;;;;5138591;27;20054;-67
2022/01/18 08:11:47;;;;;;;21.30;3.42;;;6.40;99.90;;;;;;5111677;28;20281;-67
2022/01/18 08:14:15;;;;;;;12.23;2.80;;;6.50;99.90;;;;;;5140832;27;20048;-67
2022/01/18 08:16:46;;;;;;;17.85;3.35;;;6.50;99.90;;;;;;5120283;27;20036;-66
2022/01/18 08:19:12;;;;;;;18.63;3.35;;;6.50;99.90;;;;;;5122935;27;20070;-67
2022/01/18 08:21:38;;;;;;;14.23;2.50;;;6.40;99.90;;;;;;5115114;27;20044;-67
2022/01/18 08:24:04;;;;;;;18.23;2.55;;;6.40;99.90;;;;;;5135737;27;20605;-67
2022/01/18 08:26:29;;;;;;;14.57;2.78;;;6.50;99.90;;;;;;5125473;27;20127;-67
2022/01/18 08:28:55;;;;;;;17.95;2.92;;;6.70;99.90;;;;;;5121227;27;20058;-67
2022/01/18 08:31:21;;;;;;;13.88;2.50;;;6.60;99.90;;;;;;5114710;27;20050;-67
2022/01/18 08:33:46;;;;;;;18.42;4.07;;;6.60;99.90;;;;;;5115137;27;20050;-67
2022/01/18 08:36:12;;;;;;;17.52;3.78;;;6.50;99.90;;;;;;5131985;27;20039;-67
2022/01/18 08:38:39;;;;;;;19.70;4.63;;;6.50;99.90;;;;;;5124210;27;20055;-67
2022/01/18 08:41:06;;;;;;;13.80;4.65;;;6.40;99.90;;;;;;5128830;27;20047;-67
2022/01/18 08:43:33;;;;;;;16.17;5.05;;;6.50;99.90;;;;;;5105935;27;20055;-67
2022/01/18 08:46:00;;;;;;;15.93;4.43;;;6.50;99.90;;;;;;5111218;27;20043;-67
2022/01/18 08:48:26;;;;;;;23.48;5.82;;;6.50;99.90;;;;;;5107979;27;20124;-67
2022/01/18 08:50:51;;;;;;;16.88;5.07;;;6.40;99.90;;;;;;5130385;27;20044;-67
2022/01/18 08:53:17;;;;;;;18.98;5.60;;;6.50;99.90;;;;;;5119778;27;20047;-67
2022/01/18 08:55:43;;;;;;;26.27;6.07;;;6.40;99.90;;;;;;5128466;27;20039;-67
2022/01/18 08:58:09;;;;;;;18.23;4.93;;;6.40;99.90;;;;;;5108329;27;20109;-67
2022/01/18 09:00:35;;;;;;;18.10;5.47;;;6.30;99.90;;;;;;5139277;27;20088;-67
2022/01/18 09:03:02;;;;;;;18.80;5.05;;;6.30;99.90;;;;;;5113320;27;20704;-67
2022/01/18 09:05:28;;;;;;;16.00;5.38;;;6.30;99.90;;;;;;5128541;27;20095;-66
2022/01/18 09:07:56;;;;;;;17.52;4.60;;;6.40;99.90;;;;;;5109946;27;20090;-67
2022/01/18 09:10:25;;;;;;;16.73;6.07;;;6.40;99.90;;;;;;5144593;27;20043;-67
2022/01/18 09:12:51;;;;;;;24.88;6.00;;;6.40;99.90;;;;;;5132511;27;20074;-68
2022/01/18 09:15:17;;;;;;;20.00;4.90;;;6.60;99.90;;;;;;5116180;28;20044;-66
2022/01/18 09:17:43;;;;;;;14.63;4.93;;;6.50;99.90;;;;;;5106520;27;20032;-66
2022/01/18 09:20:11;;;;;;;21.08;5.10;;;6.50;99.90;;;;;;5131444;27;20090;-66
2022/01/18 09:22:39;;;;;;;18.05;5.18;;;6.50;99.90;;;;;;5116423;28;20128;-66
2022/01/18 09:25:11;;;;;;;18.80;5.13;;;6.60;99.90;;;;;;5104736;28;20082;-66
2022/01/18 09:27:37;;;;;;;14.65;5.65;;;6.70;99.90;;;;;;5115227;28;20104;-68
2022/01/18 09:30:04;;;;;;;18.60;6.32;;;6.60;99.90;;;;;;5122523;27;20091;-68
2022/01/18 09:32:30;;;;;;;18.20;5.65;;;6.70;99.90;;;;;;5111772;28;20423;-69
2022/01/18 09:34:56;;;;;;;18.65;5.57;;;6.60;99.90;;;;;;5123213;27;20126;-67
2022/01/18 09:37:21;;;;;;;14.90;5.75;;;6.70;99.90;;;;;;5115687;28;20074;-67
2022/01/18 09:39:47;;;;;;;18.52;6.50;;;6.60;99.90;;;;;;5091235;28;20063;-67
2022/01/18 09:42:14;;;;;;;15.55;5.68;;;6.70;99.90;;;;;;5127360;27;20071;-67
2022/01/18 09:44:40;;;;;;;21.00;6.78;;;6.70;99.90;;;;;;5127070;27;20050;-67
2022/01/18 09:47:06;;;;;;;18.80;6.35;;;6.70;99.90;;;;;;5112805;27;20061;-66
2022/01/18 09:49:33;;;;;;;19.40;5.55;;;6.70;99.90;;;;;;5123264;27;20246;-66
2022/01/18 09:51:59;;;;;;;25.90;6.90;;;6.60;99.90;;;;;;5112288;28;20054;-67
2022/01/18 09:54:25;;;;;;;17.30;6.13;;;6.70;99.90;;;;;;5110570;28;20654;-67
2022/01/18 09:56:51;;;;;;;19.77;5.72;;;6.70;99.90;;;;;;5110980;28;20040;-67
2022/01/18 09:59:17;;;;;;;15.15;5.32;;;6.80;99.90;;;;;;5132390;27;20114;-67
2022/01/18 10:01:43;;;;;;;20.42;5.35;;;6.90;99.90;;;;;;5111787;28;20105;-67
2022/01/18 10:04:18;;;;;;;20.00;6.18;;;6.90;99.90;;;;;;5128492;27;20605;-67
2022/01/18 10:06:46;;;;;;;19.55;5.93;;;6.80;99.90;;;;;;5110150;28;20047;-67
2022/01/18 10:09:14;;;;;;;22.65;6.10;;;6.80;99.90;;;;;;5126681;27;20045;-66
2022/01/18 10:12:00;;;;;;;14.77;5.82;;;6.90;99.90;;;;;;5119763;28;20074;-67
2022/01/18 10:14:26;;;;;;;15.13;5.25;;;6.90;99.90;;;;;;5117281;27;20086;-67
2022/01/18 10:16:52;;;;;;;18.60;5.85;;;6.80;99.90;;;;;;5112458;28;20040;-66
2022/01/18 10:19:40;;;;;;;21.30;6.72;;;6.80;99.90;;;;;;5131561;27;20047;-67
2022/01/18 10:22:12;;;;;;;15.85;5.65;;;7.00;99.90;;;;;;5116621;28;20067;-67
2022/01/18 10:24:38;;;;;;;20.42;6.78;;;7.00;99.90;;;;;;5126840;27;20350;-67
2022/01/18 10:27:05;;;;;;;17.85;6.22;;;7.30;99.90;;;;;;5108123;28;20437;-67
2022/01/18 10:29:41;;;;;;;19.33;6.43;;;7.20;99.90;;;;;;5121357;27;20066;-67
2022/01/18 10:32:17;;;;;;;19.23;6.57;;;7.20;99.90;;;;;;5116058;28;20406;-67
2022/01/18 10:37:21;;;;;;;22.35;7.38;;;7.20;99.90;;;;;;5153174;27;20073;-67
2022/01/18 10:40:00;;;;;;;19.00;6.85;;;7.30;99.90;;;;;;5117355;27;20059;-67
2022/01/18 10:42:40;;;;;;;20.08;5.90;;;7.30;99.90;;;;;;5117987;28;20075;-67
2022/01/18 10:45:11;;;;;;;20.60;6.18;;;7.40;99.90;;;;;;5122140;27;20043;-67
2022/01/18 10:47:46;;;;;;;18.90;6.65;;;7.20;99.90;;;;;;5124783;27;20546;-67
2022/01/18 10:50:17;;;;;;;18.20;5.78;;;7.20;99.90;;;;;;5143236;27;20035;-67
2022/01/18 10:52:43;;;;;;;16.95;5.38;;;7.30;99.90;;;;;;5134689;27;20065;-67
2022/01/18 10:55:21;;;;;;;15.52;5.05;;;7.40;99.90;;;;;;5112178;27;20080;-67
2022/01/18 10:57:47;;;;;;;11.43;3.65;;;7.40;99.90;;;;;;5118802;28;20106;-67
2022/01/18 11:00:20;;;;;;;13.38;4.05;;;7.40;99.90;;;;;;5114728;27;20340;-67
2022/01/18 11:02:50;;;;;;;11.23;2.97;;;7.60;99.90;;;;;;5115571;28;20047;-67
2022/01/18 11:05:22;;;;;;;12.32;4.15;;;7.60;99.90;;;;;;5136275;27;20519;-67
2022/01/18 11:07:49;;;;;;;11.73;2.47;;;7.60;99.90;;;;;;5117429;28;20039;-67
2022/01/18 11:10:18;;;;;;;11.13;2.80;;;7.60;99.90;;;;;;5130665;27;20057;-67
2022/01/18 11:12:44;;;;;;;15.88;3.10;;;7.60;99.90;;;;;;5114798;28;20044;-67
2022/01/18 11:15:16;;;;;;;10.88;2.75;;;7.60;99.90;;;;;;5120529;27;20082;-67
2022/01/18 11:17:49;;;;;;;16.25;3.70;;;7.50;99.90;;;;;;5109670;28;20055;-67
2022/01/18 11:20:16;;;;;;;12.77;3.60;;;7.60;99.90;;;;;;5140823;27;20063;-67
2022/01/18 11:22:42;;;;;;;13.85;2.60;;;7.60;99.90;;;;;;5118383;28;20040;-67
2022/01/18 11:25:09;;;;;;;8.25;2.42;;;7.60;99.90;;;;;;5144571;27;20069;-67
2022/01/18 11:27:36;;;;;;;11.88;3.20;;;7.50;99.90;;;;;;5120258;28;20495;-67
2022/01/18 11:30:06;;;;;;;14.75;4.57;;;7.60;99.90;;;;;;5127666;27;20114;-66
2022/01/18 11:32:32;;;;;;;;;;;7.70;99.90;;;;;;5116283;28;20036;-67
2022/01/18 11:35:22;;;;;;;12.65;4.32;;;7.70;99.90;;;;;;5119149;27;19934;-67
2022/01/18 11:38:15;;;;;;;14.80;4.68;;;7.60;99.90;;;;;;5116609;28;20075;-67
2022/01/18 11:40:45;;;;;;;20.17;5.97;;;7.50;99.90;;;;;;5084780;27;20131;-67
2022/01/18 11:43:11;;;;;;;16.98;4.57;;;7.40;99.90;;;;;;5103406;27;20043;-68
2022/01/18 11:45:40;;;;;;;11.30;3.47;;;7.40;99.90;;;;;;5151270;27;20043;-65
2022/01/18 11:48:18;;;;;;;13.00;3.50;;;7.40;99.90;;;;;;5117394;28;20043;-66
2022/01/18 11:50:50;;;;;;;11.30;3.53;;;7.40;99.90;;;;;;5109433;28;20048;-66
2022/01/18 11:56:33;;;;;;;15.30;5.00;;;7.60;99.90;;;;;;5043758;28;20596;-66
2022/01/18 11:59:18;;;;;;;16.40;4.22;;;7.70;99.90;;;;;;5059284;28;20079;-66
2022/01/18 12:01:47;;;;;;;19.00;4.35;;;7.70;99.90;;;;;;5055441;28;20079;-67
2022/01/18 12:04:12;;;;;;;17.17;4.43;;;7.40;99.90;;;;;;5039294;28;20343;-66
2022/01/18 12:06:45;;;;;;;15.93;4.88;;;7.40;99.90;;;;;;5027894;28;20040;-66
2022/01/18 12:09:40;;;;;;;15.65;4.40;;;7.40;99.90;;;;;;5038989;28;20044;-66
2022/01/18 12:12:25;;;;;;;11.95;3.85;;;7.20;99.90;;;;;;5058907;28;20148;-67
2022/01/18 12:14:50;;;;;;;13.00;3.92;;;7.30;99.90;;;;;;5052292;28;20064;-66
2022/01/18 12:17:16;;;;;;;17.17;4.45;;;7.40;99.90;;;;;;5050323;28;20049;-67
2022/01/18 12:19:47;;;;;;;17.45;4.10;;;7.30;99.90;;;;;;5059819;28;20119;-66
2022/01/18 12:22:13;;;;;;;14.43;4.15;;;7.40;99.90;;;;;;5068015;28;20112;-66
2022/01/18 12:24:45;;;;;;;20.23;4.97;;;7.50;99.90;;;;;;5059147;28;20072;-68
2022/01/18 12:27:32;;;;;;;18.13;4.28;;;7.50;99.90;;;;;;5068257;28;20571;-74
2022/01/18 12:33:16;;;;;;;15.52;4.25;;;7.30;99.90;;;;;;5144156;27;20419;-67
2022/01/18 12:35:42;;;;;;;11.47;3.23;;;7.20;99.90;;;;;;5090749;28;20051;-66
2022/01/18 12:38:10;;;;;;;13.88;4.57;;;7.20;99.90;;;;;;5115734;28;20043;-66
2022/01/18 12:40:44;;;;;;;14.10;4.30;;;7.20;99.90;;;;;;5075083;27;20047;-67
2022/01/18 12:45:39;;;;;;;11.82;3.83;;;7.20;99.90;;;;;;5121991;27;20143;-67
2022/01/18 12:48:07;;;;;;;13.63;3.58;;;7.10;99.90;;;;;;5115908;28;20104;-67
2022/01/18 12:50:44;;;;;;;15.88;3.38;;;7.20;99.90;;;;;;5128577;27;20055;-67
2022/01/18 12:53:23;;;;;;;16.77;3.65;;;7.20;99.90;;;;;;5112149;28;20142;-67
2022/01/18 12:55:55;;;;;;;13.70;3.22;;;7.20;99.90;;;;;;5087377;28;20104;-67
2022/01/18 12:58:27;;;;;;;10.52;3.08;;;7.20;99.90;;;;;;5105737;28;20291;-68
2022/01/18 13:01:17;;;;;;;11.82;3.80;;;7.20;99.90;;;;;;5132233;27;20472;-67
2022/01/18 13:03:48;;;;;;;16.60;3.47;;;7.20;99.90;;;;;;5094823;27;20385;-67
2022/01/18 13:06:17;;;;;;;9.32;3.10;;;7.20;99.90;;;;;;5121704;27;20047;-67
2022/01/18 13:08:44;;;;;;;9.05;3.03;;;7.10;99.90;;;;;;5111321;27;20067;-67
2022/01/18 13:11:12;;;;;;;10.57;3.30;;;7.10;99.90;;;;;;5122464;27;20097;-67
2022/01/18 13:13:38;;;;;;;14.98;3.70;;;7.10;99.90;;;;;;5101175;27;20048;-67
2022/01/18 13:22:55;;;;;;;9.52;3.05;;;7.10;99.90;;;;;;5131176;27;20043;-67
2022/01/18 13:27:22;;;;;;;17.20;2.92;;;7.10;99.90;;;;;;5117144;27;20051;-66
2022/01/18 13:29:51;;;;;;;14.80;2.75;;;7.10;99.90;;;;;;5117878;27;20081;-66
2022/01/18 13:32:20;;;;;;;13.85;3.33;;;7.10;99.90;;;;;;5117044;27;20108;-67
2022/01/18 13:34:54;;;;;;;8.18;2.50;;;7.00;99.90;;;;;;5121119;27;20053;-67
2022/01/18 13:37:27;;;;;;;18.92;2.95;;;6.90;99.90;;;;;;5122021;27;20040;-67
2022/01/18 13:39:55;;;;;;;15.82;3.88;;;7.00;99.90;;;;;;5076204;27;20051;-67
2022/01/18 13:42:32;;;;;;;14.60;3.63;;;6.90;99.90;;;;;;5119698;28;20048;-67
2022/01/18 13:45:12;;;;;;;14.70;3.40;;;7.00;99.90;;;;;;5111287;27;20061;-67
2022/01/18 13:47:46;;;;;;;11.32;3.45;;;7.00;99.90;;;;;;5101920;28;20062;-67
2022/01/18 13:50:34;;;;;;;11.07;3.10;;;7.00;99.90;;;;;;5135699;27;20096;-67
2022/01/18 13:53:08;;;;;;;17.58;3.85;;;7.00;99.90;;;;;;5116186;28;20044;-67
2022/01/18 13:55:36;;;;;;;9.95;3.05;;;7.00;99.90;;;;;;5125443;27;20047;-67
2022/01/18 13:58:02;;;;;;;9.73;3.05;;;6.90;99.90;;;;;;5114474;28;20070;-67
2022/01/18 14:00:29;;;;;;;12.82;4.10;;;7.00;99.90;;;;;;5133657;27;20612;-67
2022/01/18 14:02:56;;;;;;;14.27;4.00;;;6.90;99.90;;;;;;5114367;28;20039;-67
2022/01/18 14:05:23;;;;;;;12.15;3.55;;;7.10;99.90;;;;;;5125018;27;20104;-67
2022/01/18 14:07:59;;;;;;;14.30;3.88;;;7.00;99.90;;;;;;5108481;28;20040;-67
2022/01/18 14:10:25;;;;;;;10.60;3.40;;;7.00;99.90;;;;;;5086045;27;20067;-67
2022/01/18 14:12:51;;;;;;;13.27;3.97;;;7.00;99.90;;;;;;5111159;27;20546;-67
2022/01/18 14:15:38;;;;;;;16.92;4.88;;;6.90;99.90;;;;;;5127073;27;20054;-67
2022/01/18 14:18:04;;;;;;;18.50;4.15;;;6.80;99.90;;;;;;5105732;28;20059;-67
2022/01/18 14:20:33;;;;;;;17.90;5.65;;;6.90;99.90;;;;;;5137558;27;20098;-67
2022/01/18 14:23:00;;;;;;;14.15;4.72;;;6.90;99.90;;;;;;5120514;28;20044;-67
2022/01/18 14:25:31;;;;;;;15.70;5.13;;;6.90;99.90;;;;;;5139613;27;20078;-67
2022/01/18 14:28:11;;;;;;;16.20;4.75;;;6.90;99.90;;;;;;5121162;27;20074;-67
2022/01/18 14:30:42;;;;;;;21.75;5.38;;;6.80;99.90;;;;;;5134191;27;20051;-67
2022/01/18 14:33:12;;;;;;;17.00;6.20;;;6.70;99.90;;;;;;5116591;28;20044;-67
2022/01/18 14:35:41;;;;;;;18.80;5.33;;;6.60;99.90;;;;;;5142654;27;20162;-67